Kithira Airport


Codes: LGKC/KIT
Name: Kithira Airport
City: Kithira Island
Country: Greece
Elevation: 1045 ft.
Wikipedia:

Photos at Kithira Airport


   Photos courtesy of SpottingLog. You can add your own sightings and photos by signing up for a free trial today.



No photos found.

Weather at Kithira Airport


Time (UTC)DescriptionTempratureWindCloud coverageVisibilityPressureHumidity
26-Jun-2024 00:00Clear Sky23°C7 mph, N0%10000m1013hPa58%
26-Jun-2024 03:00Clear Sky23°C7 mph, N0%10000m1012hPa57%
26-Jun-2024 06:00Clear Sky27°C16 mph, NE0%10000m1012hPa47%
26-Jun-2024 09:00Clear Sky28°C20 mph, NE0%10000m1012hPa45%
26-Jun-2024 12:00Clear Sky29°C20 mph, NE0%10000m1012hPa46%
26-Jun-2024 15:00Clear Sky27°C13 mph, NE0%10000m1012hPa57%
26-Jun-2024 18:00Clear Sky24°C7 mph, NE0%10000m1012hPa68%
26-Jun-2024 21:00Clear Sky23°C4 mph, NE0%10000m1012hPa67%
27-Jun-2024 00:00Clear Sky23°C7 mph, NW0%10000m1011hPa60%
27-Jun-2024 03:00Clear Sky23°C4 mph, NW0%10000m1011hPa66%
27-Jun-2024 06:00Clear Sky27°C4 mph, NW0%10000m1011hPa50%
27-Jun-2024 09:00Clear Sky30°C2 mph, SW0%10000m1011hPa42%
27-Jun-2024 12:00Clear Sky28°C16 mph, W0%10000m1010hPa49%
27-Jun-2024 15:00Clear Sky26°C20 mph, W0%10000m1009hPa60%
27-Jun-2024 18:00Clear Sky22°C25 mph, W0%10000m1009hPa85%
27-Jun-2024 21:00Clear Sky22°C11 mph, W0%10000m1009hPa89%
28-Jun-2024 00:00Clear Sky21°C7 mph, W0%10000m1008hPa89%
28-Jun-2024 03:00Clear Sky21°C4 mph, NW0%10000m1008hPa83%
28-Jun-2024 06:00Clear Sky25°C4 mph, N0%10000m1009hPa58%
28-Jun-2024 09:00Clear Sky27°C7 mph, NE0%10000m1010hPa48%
28-Jun-2024 12:00Clear Sky28°C4 mph, E0%10000m1010hPa44%
28-Jun-2024 15:00Clear Sky27°C4 mph, SW0%10000m1010hPa50%
28-Jun-2024 18:00Clear Sky23°C2 mph, E0%10000m1011hPa69%
28-Jun-2024 21:00Clear Sky23°C2 mph, NW0%10000m1011hPa64%
29-Jun-2024 00:00Clear Sky22°C9 mph, N0%10000m1010hPa71%
29-Jun-2024 03:00Clear Sky22°C9 mph, NW0%10000m1010hPa56%
29-Jun-2024 06:00Clear Sky26°C22 mph, N0%10000m1010hPa48%
29-Jun-2024 09:00Clear Sky27°C27 mph, NE0%10000m1011hPa47%
29-Jun-2024 12:00Clear Sky27°C25 mph, NE0%10000m1011hPa41%
29-Jun-2024 15:00Clear Sky27°C20 mph, NE0%10000m1011hPa45%
29-Jun-2024 18:00Clear Sky25°C13 mph, NE0%10000m1011hPa55%
29-Jun-2024 21:00Clear Sky24°C9 mph, N0%10000m1012hPa54%
30-Jun-2024 00:00Clear Sky24°C13 mph, N0%10000m1011hPa49%
30-Jun-2024 03:00Clear Sky24°C16 mph, N0%10000m1011hPa51%
30-Jun-2024 06:00Clear Sky26°C22 mph, N0%10000m1011hPa45%
30-Jun-2024 09:00Clear Sky27°C27 mph, NE0%10000m1012hPa43%
30-Jun-2024 12:00Clear Sky28°C25 mph, NE0%10000m1011hPa42%
30-Jun-2024 15:00Clear Sky26°C13 mph, NE0%10000m1011hPa50%
30-Jun-2024 18:00Clear Sky24°C7 mph, W0%10000m1011hPa55%
30-Jun-2024 21:00Clear Sky23°C7 mph, W0%10000m1012hPa67%